Time;durP1;ratioP1;P1;durP2;ratioP2;P2;SDS_P1;SDS_P2;PMS_P1;PMS_P2;Temp;Humidity;BMP_temperature;BMP_pressure;BME280_temperature;BME280_humidity;BME280_pressure;Samples;Min_cycle;Max_cycle;Signal;HPM_P1;HPM_P2
2022/10/06 00:01:14;;;;;;;14.77;2.85;;;14.00;99.90;;;;;;5071438;28;20430;-73
2022/10/06 00:03:41;;;;;;;9.73;2.10;;;13.90;99.90;;;;;;5070937;28;20033;-74
2022/10/06 00:06:11;;;;;;;10.45;2.13;;;13.90;99.90;;;;;;5071887;28;20024;-74
2022/10/06 00:08:38;;;;;;;11.07;2.17;;;14.00;99.90;;;;;;5071832;28;20162;-74
2022/10/06 00:11:04;;;;;;;12.73;2.20;;;13.90;99.90;;;;;;5071363;28;20108;-75
2022/10/06 00:13:31;;;;;;;20.65;2.25;;;13.90;99.90;;;;;;5071268;28;20040;-75
2022/10/06 00:15:58;;;;;;;15.43;2.50;;;13.80;99.90;;;;;;5071866;28;20108;-74
2022/10/06 00:18:25;;;;;;;17.80;2.55;;;13.80;99.90;;;;;;5070924;28;20052;-75
2022/10/06 00:20:58;;;;;;;14.75;2.22;;;13.70;99.90;;;;;;5071865;28;20070;-74
2022/10/06 00:23:24;;;;;;;14.88;1.98;;;13.80;99.90;;;;;;5073212;28;20051;-74
2022/10/06 00:25:49;;;;;;;11.43;1.63;;;13.60;99.90;;;;;;5075144;28;20024;-74
2022/10/06 00:28:15;;;;;;;13.55;1.92;;;13.60;99.90;;;;;;5075879;28;20473;-74
2022/10/06 00:30:41;;;;;;;8.48;1.80;;;13.50;99.90;;;;;;5075048;28;20028;-73
2022/10/06 00:33:11;;;;;;;11.75;1.83;;;13.40;99.90;;;;;;5074747;28;20021;-75
2022/10/06 00:35:36;;;;;;;11.60;1.73;;;13.40;99.90;;;;;;5074786;28;20035;-74
2022/10/06 00:38:03;;;;;;;13.93;2.85;;;13.40;99.90;;;;;;5075207;28;20021;-74
2022/10/06 00:40:29;;;;;;;8.73;1.67;;;13.40;99.90;;;;;;5073868;28;20024;-75
2022/10/06 00:42:56;;;;;;;9.95;1.90;;;13.40;99.90;;;;;;5075142;28;20581;-74
2022/10/06 00:45:44;;;;;;;8.77;1.67;;;13.40;99.90;;;;;;5074335;28;20028;-75
2022/10/06 00:48:22;;;;;;;11.63;2.08;;;13.50;99.90;;;;;;5062205;28;20032;-74
2022/10/06 00:50:49;;;;;;;9.30;2.05;;;13.50;99.90;;;;;;5074520;28;20024;-74
2022/10/06 00:53:16;;;;;;;7.63;1.70;;;13.50;99.90;;;;;;5074665;28;20020;-74
2022/10/06 00:55:41;;;;;;;13.23;2.25;;;13.50;99.90;;;;;;5074837;28;20021;-74
2022/10/06 00:58:08;;;;;;;6.55;1.67;;;13.50;99.90;;;;;;5074811;28;20035;-73
2022/10/06 01:00:34;;;;;;;10.52;1.98;;;13.50;99.90;;;;;;5073856;28;20028;-74
2022/10/06 01:03:14;;;;;;;13.20;2.15;;;13.60;99.90;;;;;;5074687;28;20024;-74
2022/10/06 01:05:45;;;;;;;7.93;1.73;;;13.50;99.90;;;;;;5074629;28;20028;-74
2022/10/06 01:08:13;;;;;;;6.97;1.92;;;13.60;99.90;;;;;;5073758;28;20050;-73
2022/10/06 01:10:39;;;;;;;10.43;2.10;;;13.60;99.90;;;;;;5074503;28;20028;-74
2022/10/06 01:13:05;;;;;;;10.75;1.95;;;13.50;99.90;;;;;;5074610;28;20032;-74
2022/10/06 01:15:32;;;;;;;5.93;1.63;;;13.60;99.90;;;;;;5073688;28;20029;-74
2022/10/06 01:18:05;;;;;;;8.57;1.80;;;13.40;99.90;;;;;;5074330;28;20032;-73
2022/10/06 01:20:31;;;;;;;13.52;2.08;;;13.30;99.90;;;;;;5073235;28;20384;-74
2022/10/06 01:23:04;;;;;;;7.32;1.48;;;13.40;99.90;;;;;;5074367;28;20041;-75
2022/10/06 01:25:35;;;;;;;14.60;2.10;;;13.40;99.90;;;;;;5060876;28;20063;-74
2022/10/06 01:28:03;;;;;;;12.57;2.40;;;13.40;99.90;;;;;;5074053;28;20037;-75
2022/10/06 01:30:35;;;;;;;11.57;3.03;;;13.40;99.90;;;;;;5073911;28;20024;-74
2022/10/06 01:33:01;;;;;;;10.77;2.38;;;13.20;99.90;;;;;;5074477;28;20028;-74
2022/10/06 01:35:27;;;;;;;13.43;1.83;;;13.20;99.90;;;;;;5072347;28;20016;-75
2022/10/06 01:37:53;;;;;;;11.63;2.53;;;13.10;99.90;;;;;;5074144;28;20032;-74
2022/10/06 01:40:19;;;;;;;12.85;1.90;;;13.00;99.90;;;;;;5074060;28;20486;-74
2022/10/06 01:42:44;;;;;;;9.70;2.00;;;12.90;99.90;;;;;;5073196;28;20060;-74
2022/10/06 01:45:10;;;;;;;7.10;2.00;;;13.00;99.90;;;;;;5073876;28;20024;-74
2022/10/06 01:47:36;;;;;;;11.00;2.00;;;12.80;99.90;;;;;;5073758;28;20028;-75
2022/10/06 01:50:04;;;;;;;16.92;2.42;;;12.90;99.90;;;;;;5072047;28;20072;-75
2022/10/06 01:52:33;;;;;;;9.80;2.05;;;12.70;99.90;;;;;;5073665;28;20075;-74
2022/10/06 01:55:00;;;;;;;15.05;2.38;;;12.80;99.90;;;;;;5073983;28;20060;-74
2022/10/06 01:57:26;;;;;;;9.95;2.08;;;12.80;99.90;;;;;;5072662;28;20021;-74
2022/10/06 01:59:51;;;;;;;9.75;2.15;;;12.70;99.90;;;;;;5073836;28;20028;-74
2022/10/06 02:02:17;;;;;;;13.05;1.90;;;12.70;99.90;;;;;;5073787;28;20027;-74
2022/10/06 02:04:43;;;;;;;7.30;2.10;;;12.60;99.90;;;;;;5072331;28;20020;-74
2022/10/06 02:07:08;;;;;;;11.95;2.22;;;12.50;99.90;;;;;;5073554;28;20078;-74
2022/10/06 02:09:34;;;;;;;15.65;3.25;;;12.50;99.90;;;;;;5071647;28;20039;-74
2022/10/06 02:11:59;;;;;;;17.48;3.20;;;12.50;99.90;;;;;;5072747;28;20085;-73
2022/10/06 02:14:25;;;;;;;10.07;2.47;;;12.60;99.90;;;;;;5073065;28;20467;-74
2022/10/06 02:16:51;;;;;;;12.27;2.28;;;12.50;99.90;;;;;;5072817;28;20048;-74
2022/10/06 02:19:16;;;;;;;11.20;2.00;;;12.50;99.90;;;;;;5073449;28;20017;-74
2022/10/06 02:21:42;;;;;;;16.00;2.08;;;12.50;99.90;;;;;;5073486;28;20035;-73
2022/10/06 02:24:07;;;;;;;13.70;2.22;;;12.50;99.90;;;;;;5072453;28;20582;-74
2022/10/06 02:26:33;;;;;;;10.32;2.05;;;12.50;99.90;;;;;;5072630;28;20162;-74
2022/10/06 02:28:58;;;;;;;7.78;1.67;;;12.50;99.90;;;;;;5073324;28;20067;-75
2022/10/06 02:31:24;;;;;;;12.88;2.40;;;12.50;99.90;;;;;;5073432;28;20464;-75
2022/10/06 02:33:50;;;;;;;7.07;1.42;;;12.60;99.90;;;;;;5073403;28;20480;-76
2022/10/06 02:36:16;;;;;;;8.20;1.75;;;12.70;99.90;;;;;;5073373;28;20067;-75
2022/10/06 02:38:42;;;;;;;12.32;2.00;;;12.70;99.90;;;;;;5072602;28;20067;-75
2022/10/06 02:41:09;;;;;;;11.88;2.38;;;12.70;99.90;;;;;;5073044;28;20380;-74
2022/10/06 02:43:35;;;;;;;14.80;2.50;;;12.60;99.90;;;;;;5072299;28;20464;-74
2022/10/06 02:46:07;;;;;;;9.60;1.83;;;12.70;99.90;;;;;;5072031;28;20543;-74
2022/10/06 02:48:33;;;;;;;11.63;1.73;;;12.70;99.90;;;;;;5072221;28;20036;-75
2022/10/06 02:51:01;;;;;;;8.85;1.95;;;12.80;99.90;;;;;;5072723;28;20119;-75
2022/10/06 02:53:28;;;;;;;11.55;2.22;;;12.70;99.90;;;;;;5071530;28;20037;-75
2022/10/06 02:55:57;;;;;;;14.10;2.25;;;12.70;99.90;;;;;;5072745;28;20017;-75
2022/10/06 02:58:23;;;;;;;12.93;1.95;;;12.50;99.90;;;;;;5072748;28;20376;-75
2022/10/06 03:00:49;;;;;;;10.05;2.10;;;12.50;99.90;;;;;;5071637;28;20074;-73
2022/10/06 03:03:14;;;;;;;13.25;2.67;;;12.40;99.90;;;;;;5072666;28;20029;-73
2022/10/06 03:05:40;;;;;;;11.88;2.08;;;12.30;99.90;;;;;;5071951;28;20021;-74
2022/10/06 03:08:06;;;;;;;11.02;2.13;;;12.20;99.90;;;;;;5071482;28;20047;-74
2022/10/06 03:10:31;;;;;;;8.45;1.65;;;12.10;99.90;;;;;;5072006;28;20074;-74
2022/10/06 03:12:57;;;;;;;8.93;1.67;;;12.20;99.90;;;;;;5071795;28;20381;-75
2022/10/06 03:15:22;;;;;;;13.07;1.80;;;12.20;99.90;;;;;;5072247;28;20025;-75
2022/10/06 03:17:49;;;;;;;12.63;2.58;;;12.20;99.90;;;;;;5071892;28;20516;-73
2022/10/06 03:20:14;;;;;;;7.90;2.30;;;12.20;99.90;;;;;;5071640;28;20037;-73
2022/10/06 03:22:40;;;;;;;7.63;2.25;;;12.20;99.90;;;;;;5071627;28;20036;-74
2022/10/06 03:25:06;;;;;;;16.13;2.42;;;12.20;99.90;;;;;;5072100;28;20035;-75
2022/10/06 03:27:32;;;;;;;9.63;1.88;;;12.20;99.90;;;;;;5071139;28;20028;-75
2022/10/06 03:29:57;;;;;;;15.60;3.75;;;12.20;99.90;;;;;;5072421;28;20161;-73
2022/10/06 03:32:23;;;;;;;13.45;2.88;;;12.20;99.90;;;;;;5072418;28;20107;-74
2022/10/06 03:34:49;;;;;;;8.55;1.73;;;12.10;99.90;;;;;;5071248;28;20036;-74
2022/10/06 03:37:15;;;;;;;12.77;2.58;;;12.10;99.90;;;;;;5072298;28;20463;-74
2022/10/06 03:39:43;;;;;;;16.02;2.92;;;12.00;99.90;;;;;;5071797;28;20016;-75
2022/10/06 03:42:09;;;;;;;11.02;2.45;;;12.00;99.90;;;;;;5071895;28;20028;-75
2022/10/06 03:44:34;;;;;;;8.65;1.65;;;11.90;99.90;;;;;;5071963;28;20024;-74
2022/10/06 03:47:00;;;;;;;10.77;2.15;;;11.90;99.90;;;;;;5071808;28;20024;-74
2022/10/06 03:49:25;;;;;;;12.57;2.00;;;11.80;99.90;;;;;;5071172;28;20037;-74
2022/10/06 03:51:53;;;;;;;9.30;1.77;;;11.70;99.90;;;;;;5072001;28;20016;-74
2022/10/06 03:54:18;;;;;;;8.65;2.53;;;11.60;99.90;;;;;;5072043;28;20035;-74
2022/10/06 03:56:44;;;;;;;10.73;2.00;;;11.60;99.90;;;;;;5071061;28;20021;-74
2022/10/06 03:59:13;;;;;;;9.38;2.20;;;11.50;99.90;;;;;;5075276;28;20016;-74
2022/10/06 04:01:41;;;;;;;13.35;2.38;;;11.50;99.90;;;;;;5075678;28;20032;-74
2022/10/06 04:04:07;;;;;;;21.48;3.35;;;11.60;99.90;;;;;;5075383;28;20031;-74
2022/10/06 04:06:36;;;;;;;11.32;1.95;;;11.60;99.90;;;;;;5075507;28;20372;-74
2022/10/06 04:09:04;;;;;;;9.85;2.58;;;11.60;99.90;;;;;;5075606;28;20098;-73
2022/10/06 04:11:32;;;;;;;8.77;2.03;;;11.70;99.90;;;;;;5074849;28;20418;-75
2022/10/06 04:14:00;;;;;;;6.63;1.50;;;11.70;99.90;;;;;;5075501;28;20024;-74
2022/10/06 04:16:29;;;;;;;14.93;2.90;;;11.60;99.90;;;;;;5074785;28;20474;-75
2022/10/06 04:18:57;;;;;;;12.07;2.42;;;11.60;99.90;;;;;;5075370;28;20388;-74
2022/10/06 04:21:24;;;;;;;7.47;1.80;;;11.50;99.90;;;;;;5075393;28;20016;-74
2022/10/06 04:23:57;;;;;;;16.20;2.80;;;11.40;99.90;;;;;;5074888;28;20056;-74
2022/10/06 04:26:26;;;;;;;10.35;2.30;;;11.30;99.90;;;;;;5075500;28;20028;-74
2022/10/06 04:28:51;;;;;;;11.95;2.22;;;11.30;99.90;;;;;;5075495;28;20435;-73
2022/10/06 04:31:21;;;;;;;12.85;2.38;;;11.20;99.90;;;;;;5074583;28;20023;-75
2022/10/06 04:33:50;;;;;;;9.23;1.90;;;11.20;99.90;;;;;;5075149;28;20024;-75
2022/10/06 04:36:21;;;;;;;12.38;2.08;;;11.10;99.90;;;;;;5075269;28;20025;-75
2022/10/06 04:38:55;;;;;;;16.55;2.78;;;11.10;99.90;;;;;;5074363;28;20029;-75
2022/10/06 04:41:21;;;;;;;16.52;3.00;;;11.10;99.90;;;;;;5075733;28;20032;-75
2022/10/06 04:43:48;;;;;;;12.30;2.78;;;11.10;99.90;;;;;;5076850;28;20055;-75
2022/10/06 04:46:15;;;;;;;27.75;3.78;;;11.00;99.90;;;;;;5074986;28;20025;-75
2022/10/06 04:48:41;;;;;;;13.02;2.80;;;11.00;99.90;;;;;;5074638;28;20094;-75
2022/10/06 04:51:14;;;;;;;15.85;2.70;;;11.00;99.90;;;;;;5075116;28;20513;-75
2022/10/06 04:53:40;;;;;;;9.60;2.92;;;11.00;99.90;;;;;;5074528;28;20032;-74
2022/10/06 04:56:10;;;;;;;13.30;2.50;;;10.90;99.90;;;;;;5074996;28;20084;-74
2022/10/06 04:58:38;;;;;;;12.43;2.80;;;10.90;99.90;;;;;;5073910;28;20032;-75
2022/10/06 05:01:19;;;;;;;8.18;2.25;;;10.90;99.90;;;;;;5074676;28;20036;-75
2022/10/06 05:03:46;;;;;;;11.85;2.03;;;10.90;99.90;;;;;;5074508;28;20035;-74
2022/10/06 05:06:13;;;;;;;18.33;2.25;;;10.90;99.90;;;;;;5063621;28;20103;-74
2022/10/06 05:08:39;;;;;;;12.65;2.83;;;10.90;99.90;;;;;;5070681;28;20032;-74
2022/10/06 05:11:07;;;;;;;5.55;2.05;;;10.90;99.90;;;;;;5073750;28;20520;-75
2022/10/06 05:13:35;;;;;;;9.82;1.70;;;10.90;99.90;;;;;;5073562;28;20028;-75
2022/10/06 05:16:02;;;;;;;12.63;2.42;;;10.80;99.90;;;;;;5074678;28;20102;-75
2022/10/06 05:18:28;;;;;;;12.65;2.50;;;10.80;99.90;;;;;;5074165;28;20017;-75
2022/10/06 05:21:03;;;;;;;11.52;2.45;;;10.80;99.90;;;;;;5073956;28;20032;-75
2022/10/06 05:23:30;;;;;;;12.38;2.40;;;10.90;99.90;;;;;;5073972;28;20044;-75
2022/10/06 05:25:56;;;;;;;7.03;1.42;;;10.80;99.90;;;;;;5066646;28;20042;-75
2022/10/06 05:28:25;;;;;;;8.98;1.83;;;10.80;99.90;;;;;;5063282;28;20534;-75
2022/10/06 05:31:02;;;;;;;9.63;1.75;;;10.80;99.90;;;;;;5070147;28;20081;-75
2022/10/06 05:33:30;;;;;;;18.40;3.13;;;10.80;99.90;;;;;;5069678;28;20025;-75
2022/10/06 05:35:58;;;;;;;10.93;2.45;;;10.80;99.90;;;;;;5070913;28;20086;-75
2022/10/06 05:38:24;;;;;;;11.80;2.05;;;10.90;99.90;;;;;;5068344;28;20025;-75
2022/10/06 05:40:50;;;;;;;11.07;2.20;;;10.80;99.90;;;;;;5070543;28;20055;-76
2022/10/06 05:43:17;;;;;;;11.13;2.45;;;10.80;99.90;;;;;;5070260;28;20040;-76
2022/10/06 05:45:56;;;;;;;10.98;2.08;;;10.80;99.90;;;;;;5070629;28;20029;-75
2022/10/06 05:48:22;;;;;;;18.67;2.93;;;10.70;99.90;;;;;;5069499;28;20520;-74
2022/10/06 05:51:04;;;;;;;17.85;2.42;;;10.70;99.90;;;;;;5070024;28;20278;-75
2022/10/06 05:53:31;;;;;;;22.27;2.63;;;10.70;99.90;;;;;;5066823;28;20477;-76
2022/10/06 05:56:06;;;;;;;13.57;2.60;;;10.70;99.90;;;;;;5069912;28;20017;-75
2022/10/06 05:58:32;;;;;;;10.63;2.15;;;10.60;99.90;;;;;;5067921;28;20017;-74
2022/10/06 06:01:09;;;;;;;15.82;2.08;;;10.60;99.90;;;;;;5068736;28;20031;-75
2022/10/06 06:03:36;;;;;;;16.70;2.10;;;10.70;99.90;;;;;;5068668;28;20113;-74
2022/10/06 06:06:02;;;;;;;13.90;2.88;;;10.70;99.90;;;;;;5072294;28;20086;-75
2022/10/06 06:08:28;;;;;;;14.85;2.50;;;10.70;99.90;;;;;;5068629;28;20043;-75
2022/10/06 06:10:53;;;;;;;15.00;2.83;;;10.70;99.90;;;;;;5070450;28;20099;-75
2022/10/06 06:13:22;;;;;;;15.43;3.10;;;10.70;99.90;;;;;;5074447;28;20025;-75
2022/10/06 06:16:00;;;;;;;17.63;2.53;;;10.60;99.90;;;;;;5071255;28;20048;-75
2022/10/06 06:18:27;;;;;;;11.80;2.28;;;10.60;99.90;;;;;;5072342;28;20023;-75
2022/10/06 06:20:57;;;;;;;6.97;2.05;;;10.70;99.90;;;;;;5051199;28;20737;-75
2022/10/06 06:23:23;;;;;;;20.52;2.35;;;10.60;99.90;;;;;;5073704;28;20060;-74
2022/10/06 06:26:07;;;;;;;15.90;2.60;;;10.60;99.90;;;;;;5071918;28;20028;-74
2022/10/06 06:28:34;;;;;;;14.98;2.33;;;10.60;99.90;;;;;;5070566;28;20117;-75
2022/10/06 06:31:05;;;;;;;17.27;2.53;;;10.60;99.90;;;;;;5068431;28;20464;-74
2022/10/06 06:33:41;;;;;;;13.23;2.58;;;10.60;99.90;;;;;;5050113;28;20052;-74
2022/10/06 06:36:17;;;;;;;12.70;2.22;;;10.70;99.90;;;;;;5072523;28;20028;-74
2022/10/06 06:38:50;;;;;;;6.57;1.58;;;10.70;99.90;;;;;;5071190;28;20536;-75
2022/10/06 06:41:21;;;;;;;8.88;1.85;;;10.70;99.90;;;;;;5070602;28;20040;-75
2022/10/06 06:43:47;;;;;;;14.45;2.88;;;10.70;99.90;;;;;;5068772;28;20074;-75
2022/10/06 06:46:14;;;;;;;11.80;2.13;;;10.80;99.90;;;;;;5069122;28;20031;-75
2022/10/06 06:48:41;;;;;;;11.48;2.72;;;10.80;99.90;;;;;;5067857;28;20047;-74
2022/10/06 06:51:10;;;;;;;9.25;2.20;;;10.90;99.90;;;;;;5067641;28;20495;-75
2022/10/06 06:53:37;;;;;;;16.13;2.88;;;10.90;99.90;;;;;;5069332;28;20024;-75
2022/10/06 06:56:04;;;;;;;10.68;2.67;;;11.00;99.90;;;;;;5059885;28;20021;-74
2022/10/06 06:58:31;;;;;;;13.63;2.10;;;11.10;99.90;;;;;;5065313;28;20037;-76
2022/10/06 07:01:07;;;;;;;11.30;2.60;;;11.20;99.90;;;;;;5055730;28;20543;-77
2022/10/06 07:03:33;;;;;;;16.65;3.03;;;11.20;99.90;;;;;;5063066;28;20134;-76
2022/10/06 07:06:09;;;;;;;15.80;3.20;;;11.30;99.90;;;;;;5054478;28;20385;-78
2022/10/06 07:08:36;;;;;;;16.13;3.20;;;11.40;99.90;;;;;;5053079;28;20029;-77
2022/10/06 07:11:18;;;;;;;16.92;2.42;;;11.40;99.90;;;;;;5053853;28;20025;-79
2022/10/06 07:13:45;;;;;;;9.65;2.40;;;11.50;99.90;;;;;;5052038;28;20090;-79
2022/10/06 07:27:10;;;;;;;20.83;2.70;;;12.00;99.90;;;;;;5068008;28;20048;-77
2022/10/06 07:29:36;;;;;;;11.52;2.83;;;12.10;99.90;;;;;;5072017;28;20040;-76
2022/10/06 07:32:01;;;;;;;14.40;2.42;;;12.10;99.90;;;;;;5056391;28;20104;-77
2022/10/06 07:34:29;;;;;;;18.48;3.47;;;12.10;99.90;;;;;;5051314;28;20052;-76
2022/10/06 07:36:58;;;;;;;17.20;2.60;;;12.20;99.90;;;;;;5052436;28;20026;-75
2022/10/06 07:39:23;;;;;;;13.32;2.55;;;12.20;99.90;;;;;;5052182;28;20362;-76
2022/10/06 07:41:49;;;;;;;9.48;2.20;;;12.30;99.90;;;;;;5051538;28;20036;-77
2022/10/06 07:44:14;;;;;;;15.93;2.60;;;12.30;99.90;;;;;;5052764;28;20021;-77
2022/10/06 07:46:42;;;;;;;9.48;1.98;;;12.40;99.90;;;;;;5052269;28;20017;-77
2022/10/06 07:49:08;;;;;;;24.67;3.30;;;12.50;99.90;;;;;;5051783;28;20037;-76
2022/10/06 07:51:34;;;;;;;12.45;2.55;;;12.50;99.90;;;;;;5051983;28;20024;-76
2022/10/06 07:54:05;;;;;;;20.00;2.90;;;12.60;99.90;;;;;;5061708;28;20035;-77
2022/10/06 07:56:34;;;;;;;8.80;2.55;;;12.70;99.90;;;;;;5069589;28;20028;-76
2022/10/06 07:58:59;;;;;;;7.75;1.98;;;12.70;99.90;;;;;;5072491;28;20039;-76
2022/10/06 08:01:26;;;;;;;13.52;2.90;;;12.70;99.90;;;;;;5058007;28;20044;-79
2022/10/06 08:03:51;;;;;;;20.60;2.55;;;12.80;99.90;;;;;;5056857;28;20081;-79
2022/10/06 08:06:18;;;;;;;16.75;3.20;;;12.80;99.90;;;;;;5057650;28;20060;-79
2022/10/06 08:08:46;;;;;;;7.75;1.90;;;12.90;99.90;;;;;;5059801;28;20415;-77
2022/10/06 08:11:12;;;;;;;13.23;2.28;;;12.90;99.90;;;;;;5059779;28;20028;-77
2022/10/06 08:13:41;;;;;;;15.18;2.42;;;12.90;99.90;;;;;;5056324;28;20025;-77
2022/10/06 08:16:09;;;;;;;12.43;2.38;;;13.00;99.90;;;;;;5055468;28;20025;-77
2022/10/06 08:18:35;;;;;;;10.55;2.17;;;13.00;99.90;;;;;;5064184;28;20036;-75
2022/10/06 08:21:08;;;;;;;8.80;2.15;;;13.10;99.90;;;;;;5071932;28;20066;-79
2022/10/06 08:23:38;;;;;;;6.70;1.60;;;13.20;99.90;;;;;;5071344;28;20049;-76
2022/10/06 08:26:03;;;;;;;10.60;2.63;;;13.20;99.90;;;;;;5072405;28;20460;-79
2022/10/06 08:28:29;;;;;;;12.93;2.45;;;13.40;99.90;;;;;;5071928;28;20044;-78
2022/10/06 08:30:55;;;;;;;13.18;2.55;;;13.40;99.90;;;;;;5071587;28;20031;-78
2022/10/06 08:33:21;;;;;;;11.60;2.25;;;13.40;99.90;;;;;;5072110;28;20020;-80
2022/10/06 08:35:47;;;;;;;16.65;3.17;;;13.40;99.90;;;;;;5081140;28;20119;-80
2022/10/06 08:38:13;;;;;;;10.18;2.28;;;13.50;99.90;;;;;;5090031;28;20005;-78
2022/10/06 08:40:42;;;;;;;9.90;1.90;;;13.50;99.90;;;;;;5078642;28;20025;-78
2022/10/06 08:43:14;;;;;;;12.68;2.22;;;13.60;99.90;;;;;;5072187;28;20039;-77
2022/10/06 08:45:44;;;;;;;17.77;2.63;;;13.70;99.90;;;;;;5070427;28;20108;-79
2022/10/06 08:48:19;;;;;;;10.55;2.10;;;13.70;99.90;;;;;;5072727;28;20076;-80
2022/10/06 08:51:18;;;;;;;15.15;2.40;;;13.70;99.90;;;;;;5069443;28;20037;-80
2022/10/06 08:54:10;;;;;;;12.82;2.92;;;13.80;99.90;;;;;;5072806;28;20400;-80
2022/10/06 08:56:53;;;;;;;11.95;1.38;;;13.90;99.90;;;;;;5070067;28;20108;-80
2022/10/06 08:59:18;;;;;;;11.57;1.98;;;14.00;99.90;;;;;;5077111;28;20029;-80
2022/10/06 09:01:46;;;;;;;6.32;1.73;;;14.00;99.90;;;;;;5069440;28;20039;-81
2022/10/06 09:04:22;;;;;;;12.40;2.25;;;14.10;99.90;;;;;;5068199;28;20082;-78
2022/10/06 09:06:59;;;;;;;11.77;2.17;;;14.20;99.90;;;;;;5056508;28;20017;-79
2022/10/06 09:09:59;;;;;;;9.20;2.03;;;14.20;99.90;;;;;;5066241;28;20033;-79
2022/10/06 09:12:50;;;;;;;9.80;1.98;;;14.30;99.90;;;;;;5053993;28;20055;-74
2022/10/06 09:15:28;;;;;;;10.55;1.63;;;14.40;99.90;;;;;;5062011;28;20060;-76
2022/10/06 09:18:16;;;;;;;18.75;2.00;;;14.40;99.90;;;;;;5063884;28;20029;-76
2022/10/06 09:20:56;;;;;;;4.70;1.42;;;14.50;99.90;;;;;;5073915;28;20024;-75
2022/10/06 09:26:10;;;;;;;11.80;1.55;;;14.60;99.90;;;;;;5074593;28;20035;-78
2022/10/06 09:28:36;;;;;;;9.00;2.50;;;14.70;99.90;;;;;;5074920;28;20041;-76
2022/10/06 09:31:02;;;;;;;8.30;1.77;;;14.80;99.90;;;;;;5074861;28;20035;-76
2022/10/06 09:33:38;;;;;;;12.85;3.00;;;14.80;99.90;;;;;;5076668;28;20029;-76
2022/10/06 09:36:09;;;;;;;10.50;2.00;;;14.90;99.90;;;;;;5075586;28;20056;-78
2022/10/06 09:38:54;;;;;;;5.55;1.80;;;15.00;99.90;;;;;;5074522;28;20426;-72
2022/10/06 09:41:37;;;;;;;9.52;1.63;;;15.00;99.90;;;;;;5073878;28;20161;-74
2022/10/06 09:44:16;;;;;;;14.50;1.65;;;15.10;99.90;;;;;;5076719;28;20028;-76
2022/10/06 09:46:42;;;;;;;5.88;1.42;;;15.10;99.90;;;;;;5071498;28;20021;-77
2022/10/06 09:49:19;;;;;;;6.80;1.77;;;15.20;99.90;;;;;;5062415;28;20044;-77
2022/10/06 09:52:14;;;;;;;9.07;1.70;;;15.20;99.90;;;;;;5066535;28;20540;-78
2022/10/06 09:54:42;;;;;;;17.90;1.90;;;15.30;99.90;;;;;;5065208;28;20020;-76
2022/10/06 09:57:30;;;;;;;6.55;1.50;;;15.30;99.90;;;;;;5066990;28;20016;-76
2022/10/06 09:59:58;;;;;;;6.32;1.52;;;15.40;99.90;;;;;;5064541;28;20031;-76
2022/10/06 10:02:35;;;;;;;10.82;1.90;;;15.30;99.90;;;;;;5066125;28;20511;-76
2022/10/06 10:05:05;;;;;;;11.88;1.42;;;15.40;99.90;;;;;;5069295;28;20024;-76
2022/10/06 10:07:33;;;;;;;5.07;1.58;;;15.50;99.90;;;;;;5069450;28;20195;-76
2022/10/06 10:10:17;;;;;;;9.40;1.80;;;15.50;99.90;;;;;;5071561;28;20036;-76
2022/10/06 10:12:49;;;;;;;8.77;1.70;;;15.60;99.90;;;;;;5070574;28;20025;-76
2022/10/06 10:15:17;;;;;;;5.38;1.63;;;15.70;99.90;;;;;;5068615;28;20499;-77
2022/10/06 10:17:55;;;;;;;11.65;1.80;;;15.70;99.90;;;;;;5068632;28;20020;-76
2022/10/06 10:20:23;;;;;;;10.60;1.63;;;15.80;99.90;;;;;;5071219;28;20436;-75
2022/10/06 10:22:51;;;;;;;6.05;1.52;;;15.80;99.90;;;;;;5070019;28;20045;-74
2022/10/06 10:25:39;;;;;;;7.57;1.20;;;15.90;99.90;;;;;;5069882;28;20035;-75
2022/10/06 10:28:33;;;;;;;6.28;1.25;;;16.40;99.90;;;;;;5077080;28;20032;-75
2022/10/06 10:31:29;;;;;;;5.32;1.63;;;15.90;99.90;;;;;;5071007;28;20049;-75
2022/10/06 10:34:10;;;;;;;5.53;1.73;;;15.80;99.90;;;;;;5018803;28;20033;-75
2022/10/06 10:36:42;;;;;;;3.85;1.17;;;15.80;99.90;;;;;;5072217;28;20024;-75
2022/10/06 10:39:14;;;;;;;8.25;1.73;;;15.80;99.90;;;;;;5059297;28;20041;-76
2022/10/06 10:41:47;;;;;;;5.43;0.90;;;15.80;99.90;;;;;;5065055;28;20037;-75
2022/10/06 10:44:36;;;;;;;8.50;1.10;;;15.90;99.90;;;;;;5053338;28;20017;-76
2022/10/06 10:47:19;;;;;;;4.05;1.42;;;15.90;99.90;;;;;;5053433;28;20032;-76
2022/10/06 10:49:52;;;;;;;4.88;0.90;;;15.90;99.90;;;;;;5052458;28;20393;-78
2022/10/06 10:52:21;;;;;;;6.30;1.42;;;15.90;99.90;;;;;;5052811;28;20111;-77
2022/10/06 10:55:06;;;;;;;4.82;1.23;;;15.90;99.90;;;;;;5052483;28;20120;-77
2022/10/06 10:57:36;;;;;;;10.30;1.80;;;15.90;99.90;;;;;;5052591;28;20051;-80
2022/10/06 11:00:19;;;;;;;4.25;1.17;;;16.00;99.90;;;;;;5053084;28;20013;-80
2022/10/06 11:02:45;;;;;;;7.63;1.30;;;16.00;99.90;;;;;;5053344;28;20073;-80
2022/10/06 11:05:22;;;;;;;9.27;1.20;;;16.10;99.90;;;;;;5052801;28;20025;-83
2022/10/06 11:08:23;;;;;;;10.10;1.48;;;16.20;99.90;;;;;;5053769;28;20021;-74
2022/10/06 11:10:54;;;;;;;9.18;1.40;;;16.20;99.90;;;;;;5044745;28;20060;-80
2022/10/06 11:13:24;;;;;;;10.65;1.50;;;16.30;99.90;;;;;;5053055;28;20087;-82
2022/10/06 11:15:59;;;;;;;6.13;1.10;;;16.20;99.90;;;;;;5053466;28;20039;-81
2022/10/06 11:18:46;;;;;;;7.00;1.00;;;16.40;99.90;;;;;;5065226;28;20012;-80
2022/10/06 11:21:33;;;;;;;9.48;1.33;;;16.40;99.90;;;;;;5072968;28;20020;-79
2022/10/06 11:24:30;;;;;;;5.35;1.48;;;16.40;99.90;;;;;;5072889;28;20049;-78
2022/10/06 11:27:01;;;;;;;6.55;1.00;;;16.40;99.90;;;;;;5064243;28;20059;-80
2022/10/06 11:29:45;;;;;;;6.90;1.17;;;16.50;99.90;;;;;;5072438;28;20469;-78
2022/10/06 11:32:35;;;;;;;5.47;1.30;;;16.50;99.90;;;;;;5069064;28;20040;-77
2022/10/06 11:35:01;;;;;;;3.78;1.17;;;16.50;99.90;;;;;;5067256;28;20055;-78
2022/10/06 11:37:37;;;;;;;5.50;1.15;;;16.50;99.90;;;;;;5069753;28;20035;-80
2022/10/06 11:40:21;;;;;;;4.65;1.45;;;16.60;99.90;;;;;;5066966;28;20040;-78
2022/10/06 11:42:57;;;;;;;5.40;0.90;;;16.50;99.90;;;;;;5065416;28;20025;-78
2022/10/06 11:45:30;;;;;;;3.33;0.90;;;16.50;99.90;;;;;;5070161;28;20040;-78
2022/10/06 11:48:26;;;;;;;7.32;1.40;;;16.50;99.90;;;;;;5068864;28;20494;-78
2022/10/06 11:50:56;;;;;;;9.00;1.60;;;16.60;99.90;;;;;;5069843;28;20370;-78
2022/10/06 11:53:30;;;;;;;7.55;1.30;;;16.60;99.90;;;;;;5069862;28;20037;-77
2022/10/06 11:56:18;;;;;;;4.50;1.25;;;16.80;99.90;;;;;;5072518;28;20028;-78
2022/10/06 11:58:49;;;;;;;5.72;1.20;;;16.90;99.90;;;;;;5069176;28;20671;-79
2022/10/06 12:01:30;;;;;;;8.02;1.30;;;17.00;99.90;;;;;;5070082;28;20012;-78
2022/10/06 12:04:08;;;;;;;10.13;1.10;;;17.00;99.90;;;;;;5067201;28;20025;-79
2022/10/06 12:06:42;;;;;;;2.42;0.73;;;16.90;99.90;;;;;;5071808;28;20092;-78
2022/10/06 12:09:28;;;;;;;5.70;1.65;;;17.00;99.90;;;;;;5070538;28;20028;-79
2022/10/06 12:11:54;;;;;;;5.90;1.55;;;17.00;99.90;;;;;;5070243;28;20024;-80
2022/10/06 12:14:24;;;;;;;6.40;1.50;;;17.10;99.90;;;;;;5053623;28;20025;-79
2022/10/06 12:16:56;;;;;;;4.28;0.95;;;17.10;99.90;;;;;;5064533;28;20029;-81
2022/10/06 12:19:30;;;;;;;6.32;1.77;;;17.10;99.90;;;;;;5080707;28;20037;-81
2022/10/06 12:22:06;;;;;;;4.90;1.05;;;17.10;99.90;;;;;;5080257;28;20107;-82
2022/10/06 12:24:49;;;;;;;3.97;0.90;;;17.10;99.90;;;;;;5076818;28;20503;-82
2022/10/06 12:27:35;;;;;;;3.67;1.27;;;17.00;99.90;;;;;;5064915;28;20028;-80
2022/10/06 12:30:18;;;;;;;6.00;1.20;;;17.10;99.90;;;;;;5055855;28;20033;-80
2022/10/06 12:32:57;;;;;;;7.32;0.90;;;17.00;99.90;;;;;;5057388;28;20029;-81
2022/10/06 12:35:39;;;;;;;6.78;1.23;;;17.10;99.90;;;;;;5064470;28;20031;-81
2022/10/06 12:38:25;;;;;;;4.22;1.45;;;17.20;99.90;;;;;;5059679;28;20032;-82
2022/10/06 12:40:55;;;;;;;3.90;1.10;;;17.10;99.90;;;;;;5065787;28;20028;-80
2022/10/06 12:43:24;;;;;;;5.80;1.02;;;17.20;99.90;;;;;;5069401;28;20025;-79
2022/10/06 12:45:58;;;;;;;4.70;0.70;;;17.20;99.90;;;;;;5073077;28;20115;-81
2022/10/06 12:49:00;;;;;;;6.28;1.05;;;17.20;99.90;;;;;;5070607;28;20095;-81
2022/10/06 12:51:39;;;;;;;4.38;1.10;;;17.20;99.90;;;;;;5066333;28;20170;-80
2022/10/06 12:54:08;;;;;;;9.45;1.50;;;17.30;99.90;;;;;;5071389;28;20085;-80
2022/10/06 12:57:00;;;;;;;8.45;1.35;;;17.40;99.90;;;;;;5072904;28;20476;-80
2022/10/06 12:59:32;;;;;;;6.35;1.45;;;17.40;99.90;;;;;;5069030;28;20103;-82
2022/10/06 13:02:01;;;;;;;6.50;0.95;;;17.50;99.90;;;;;;5069230;28;20379;-80
2022/10/06 13:04:33;;;;;;;9.23;0.98;;;17.40;99.90;;;;;;5069335;28;20025;-81
2022/10/06 13:07:08;;;;;;;3.53;1.15;;;17.60;99.90;;;;;;5070368;28;20036;-80
2022/10/06 13:09:34;;;;;;;8.57;0.82;;;17.50;99.90;;;;;;5071073;28;20442;-80
2022/10/06 13:12:20;;;;;;;5.30;1.33;;;17.60;99.90;;;;;;5069654;28;20226;-81
2022/10/06 13:14:47;;;;;;;5.88;0.93;;;17.60;99.90;;;;;;5071535;28;20485;-78